Hs Rome — D5DR4 — position and weather

sailwx.info

Track history (hours):
 
Tides and Currents Weather Stations Pressure Air Temp Water Temp Dewpoint Dewpoint Depression Visibility Wind Speed Wind Dir Waves Ship Positions

Hs Rome

Last reported at 2017-Sep-20 19:11 UTC. Time now 2017-Sep-23 03:50 UTC.
Position N 19°47' W 096°11'.

Length 300 m; draft 10.8 m.

Type: Ship (hazmat cat A). MMSI: 636092485.

Date/timePositionNaut miles runAvg speedWind from/ knotsBaromVisibWave heightAir tempDewpointWater temp
2017-Sep-20 19:11N 19°47' W 096°11'419.6
2017-Sep-20 18:58N 19°43' W 096°09'919.3
2017-Sep-20 18:30N 19°35' W 096°06'1019.2
2017-Sep-20 18:00N 19°26' W 096°01'918.8
2017-Sep-20 17:30N 19°17' W 095°58'815.9
2017-Sep-20 17:00N 19°11' W 096°03'5 9.5
2017-Sep-20 16:30N 19°12' W 096°08'0 0.6
2017-Sep-20 15:59N 19°13' W 096°08'0 0.0
2017-Sep-20 15:29N 19°13' W 096°08'0 0.0
2017-Sep-20 14:59N 19°13' W 096°08'0 0.0
2017-Sep-20 13:59N 19°13' W 096°08'0 0.0
2017-Sep-20 13:29N 19°13' W 096°08'0 0.0
2017-Sep-20 12:59N 19°13' W 096°08'0 0.0
2017-Sep-20 12:29N 19°13' W 096°08'0 0.0
2017-Sep-20 11:59N 19°13' W 096°08'0 0.0
2017-Sep-20 11:29N 19°13' W 096°08'0 0.0
2017-Sep-20 10:59N 19°13' W 096°08'0 0.0
2017-Sep-20 10:29N 19°13' W 096°08'0 0.0
2017-Sep-20 09:59N 19°13' W 096°08'0 0.0
2017-Sep-20 09:29N 19°13' W 096°08'0 0.0
2017-Sep-20 08:59N 19°13' W 096°08'0 0.0
2017-Sep-20 08:29N 19°13' W 096°08'0 0.0
2017-Sep-20 07:56N 19°13' W 096°08'0 0.0
2017-Sep-20 07:29N 19°13' W 096°08'0 0.0
2017-Sep-20 06:59N 19°13' W 096°08'0 0.0
2017-Sep-20 06:29N 19°13' W 096°08'0 0.0
2017-Sep-20 05:59N 19°13' W 096°08'0 0.0
2017-Sep-20 05:29N 19°13' W 096°08'0 0.0
2017-Sep-20 04:59N 19°13' W 096°08'0 0.0
2017-Sep-20 04:29N 19°13' W 096°08'0 0.0
2017-Sep-20 03:59N 19°13' W 096°08'0 0.0
2017-Sep-20 03:29N 19°13' W 096°08'0 0.0
2017-Sep-20 02:53N 19°13' W 096°08'0 0.0
2017-Sep-20 02:29N 19°13' W 096°08'0 0.0
2017-Sep-20 01:59N 19°13' W 096°08'0 0.0
2017-Sep-20 01:29N 19°13' W 096°08'0 0.0
2017-Sep-20 00:59N 19°13' W 096°08'0 0.0
2017-Sep-20 00:29N 19°13' W 096°08'0 0.0
2017-Sep-19 23:59N 19°13' W 096°08'0 0.0
2017-Sep-19 23:29N 19°13' W 096°08'0 0.0
2017-Sep-19 22:59N 19°13' W 096°08'0 0.0
2017-Sep-19 22:29N 19°13' W 096°08'0 0.0
2017-Sep-19 21:59N 19°13' W 096°08'0 0.5
2017-Sep-19 21:30N 19°12' W 096°08'4 7.3
2017-Sep-19 21:00N 19°11' W 096°04'3 6.6
2017-Sep-19 20:30N 19°12' W 096°01'4 7.8
2017-Sep-19 20:00N 19°14' W 095°57'2 4.4
2017-Sep-19 19:30N 19°15' W 095°55'0 0.5
2017-Sep-19 19:00N 19°15' W 095°55'0 0.4
2017-Sep-19 18:30N 19°16' W 095°55'0 0.4
2017-Sep-19 18:00N 19°16' W 095°55'0 0.5
2017-Sep-19 17:30N 19°16' W 095°55'0 0.4
2017-Sep-19 17:00N 19°16' W 095°55'0 0.3
2017-Sep-19 16:30N 19°16' W 095°55'0 0.4
2017-Sep-19 16:00N 19°16' W 095°54'1 0.9
2017-Sep-19 15:27N 19°16' W 095°54'0 0.8
2017-Sep-19 14:58N 19°16' W 095°54'0 1.0
2017-Sep-19 14:30N 19°16' W 095°53'1 2.3
2017-Sep-19 14:00N 19°16' W 095°52'4 8.3
2017-Sep-19 13:30N 19°15' W 095°48'510.1
2017-Sep-19 13:00N 19°16' W 095°43'510.6
2017-Sep-19 12:30N 19°18' W 095°38'  
2017-Sep-16 06:37N 25°04' W 080°10'419.6
2017-Sep-16 06:26N 25°07' W 080°08'819.5
2017-Sep-16 06:00N 25°15' W 080°05'918.3
2017-Sep-16 05:30N 25°23' W 080°02'612.5
2017-Sep-16 05:00N 25°30' W 080°01'4 8.7
2017-Sep-16 04:30N 25°34' W 080°01'4 8.8
2017-Sep-16 04:00N 25°38' W 080°01'612.7
2017-Sep-16 03:30N 25°45' W 080°03'5 9.8
2017-Sep-16 03:00N 25°46' W 080°08'1 1.7
2017-Sep-16 02:28N 25°46' W 080°09'0 0.0
2017-Sep-16 01:58N 25°46' W 080°09'0 0.0
2017-Sep-16 01:28N 25°46' W 080°09'0 0.0
2017-Sep-16 00:58N 25°46' W 080°09'0 0.0
2017-Sep-16 00:25N 25°46' W 080°09'0 0.0
2017-Sep-15 23:58N 25°46' W 080°09'0 0.0
2017-Sep-15 23:28N 25°46' W 080°09'0 0.0
2017-Sep-15 22:55N 25°46' W 080°09'0 0.0
2017-Sep-15 22:28N 25°46' W 080°09'0 0.0
2017-Sep-15 21:55N 25°46' W 080°09'0 0.0
2017-Sep-15 21:28N 25°46' W 080°09'0 0.0
2017-Sep-15 20:55N 25°46' W 080°09'0 0.0
2017-Sep-15 20:25N 25°46' W 080°09'0 0.0
2017-Sep-15 19:55N 25°46' W 080°09'0 0.0
2017-Sep-15 19:28N 25°46' W 080°09'0 0.0
2017-Sep-15 18:55N 25°46' W 080°09'0 0.4
2017-Sep-15 18:28N 25°46' W 080°09'0 0.0
2017-Sep-15 17:58N 25°46' W 080°09'0 0.0
2017-Sep-15 17:28N 25°46' W 080°09'0 0.0
2017-Sep-15 16:58N 25°46' W 080°09'0 0.0
2017-Sep-15 16:30N 25°46' W 080°09'1 1.8
2017-Sep-15 16:00N 25°46' W 080°08'5 9.8
2017-Sep-15 15:30N 25°46' W 080°02'611.5
2017-Sep-15 15:01N 25°51' W 079°59'713.4
2017-Sep-15 14:30N 25°57' W 079°56'1 1.5
2017-Sep-15 14:00N 25°57' W 079°57'1 1.6
2017-Sep-15 13:30N 25°56' W 079°57'0 0.8
2017-Sep-15 13:00N 25°56' W 079°58'2 4.1
2017-Sep-15 12:30N 25°58' W 079°58'1 2.3
2017-Sep-15 12:00N 25°59' W 079°57'4 7.9
2017-Sep-15 11:30N 26°03' W 079°57'4 7.6
2017-Sep-15 11:00N 26°07' W 079°57'4 7.5
2017-Sep-15 10:30N 26°10' W 079°57'4 7.3
2017-Sep-15 10:00N 26°14' W 079°56'4 7.2
2017-Sep-15 09:30N 26°18' W 079°56'4 7.4
2017-Sep-15 09:00N 26°21' W 079°56'4 7.6
2017-Sep-15 08:30N 26°25' W 079°56'4 7.7
2017-Sep-15 08:00N 26°29' W 079°55'4 7.4
2017-Sep-15 07:30N 26°33' W 079°55'4 7.3
2017-Sep-15 07:00N 26°36' W 079°55'4 7.2
2017-Sep-15 06:28N 26°40' W 079°55'3 7.3
2017-Sep-15 05:59N 26°44' W 079°54'4 7.6
2017-Sep-15 05:30N 26°47' W 079°54'4 7.6
2017-Sep-15 05:00N 26°51' W 079°54'4 7.4
2017-Sep-15 04:30N 26°55' W 079°54'4 7.3
2017-Sep-15 04:00N 26°58' W 079°54'3 6.9
2017-Sep-15 03:30N 27°02' W 079°53'3 6.9
2017-Sep-15 03:00N 27°05' W 079°53'3 6.9
2017-Sep-15 02:30N 27°09' W 079°53'4 6.7
2017-Sep-15 01:58N 27°12' W 079°53'3 6.9
2017-Sep-15 01:30N 27°16' W 079°52'4 6.7
2017-Sep-15 00:51N 27°20' W 079°52'264 7.7
2017-Sep-13 14:20N 31°44' W 079°38'617.5
2017-Sep-13 13:59N 31°50' W 079°37'1323.1
2017-Sep-13 13:26N 32°03' W 079°37'1021.1
2017-Sep-13 12:58N 32°13' W 079°36'1018.7
2017-Sep-13 12:26N 32°22' W 079°36'918.6
2017-Sep-13 11:58N 32°31' W 079°36'1112.9
2017-Sep-13 11:08N 32°40' W 079°43'217.5
2017-Sep-13 11:00N 32°42' W 079°45'  
Track history (hours):
 
Tides and Currents Weather Stations Pressure Air Temp Water Temp Dewpoint Dewpoint Depression Visibility Wind Speed Wind Dir Waves Ship Positions

Hs Rome

Last reported at 2017-Sep-20 19:11 UTC. Time now 2017-Sep-23 03:50 UTC.
Position N 19°47' W 096°11'.

Length 300 m; draft 10.8 m.

Type: Ship (hazmat cat A). MMSI: 636092485.

Date/timePositionNaut miles runAvg speedWind from/ knotsBaromVisibWave heightAir tempDewpointWater temp
2017-Sep-20 19:11N 19°47' W 096°11'419.6
2017-Sep-20 18:58N 19°43' W 096°09'919.3
2017-Sep-20 18:30N 19°35' W 096°06'1019.2
2017-Sep-20 18:00N 19°26' W 096°01'918.8
2017-Sep-20 17:30N 19°17' W 095°58'815.9
2017-Sep-20 17:00N 19°11' W 096°03'5 9.5
2017-Sep-20 16:30N 19°12' W 096°08'0 0.6
2017-Sep-20 15:59N 19°13' W 096°08'0 0.0
2017-Sep-20 15:29N 19°13' W 096°08'0 0.0
2017-Sep-20 14:59N 19°13' W 096°08'0 0.0
2017-Sep-20 13:59N 19°13' W 096°08'0 0.0
2017-Sep-20 13:29N 19°13' W 096°08'0 0.0
2017-Sep-20 12:59N 19°13' W 096°08'0 0.0
2017-Sep-20 12:29N 19°13' W 096°08'0 0.0
2017-Sep-20 11:59N 19°13' W 096°08'0 0.0
2017-Sep-20 11:29N 19°13' W 096°08'0 0.0
2017-Sep-20 10:59N 19°13' W 096°08'0 0.0
2017-Sep-20 10:29N 19°13' W 096°08'0 0.0
2017-Sep-20 09:59N 19°13' W 096°08'0 0.0
2017-Sep-20 09:29N 19°13' W 096°08'0 0.0
2017-Sep-20 08:59N 19°13' W 096°08'0 0.0
2017-Sep-20 08:29N 19°13' W 096°08'0 0.0
2017-Sep-20 07:56N 19°13' W 096°08'0 0.0
2017-Sep-20 07:29N 19°13' W 096°08'0 0.0
2017-Sep-20 06:59N 19°13' W 096°08'0 0.0
2017-Sep-20 06:29N 19°13' W 096°08'0 0.0
2017-Sep-20 05:59N 19°13' W 096°08'0 0.0
2017-Sep-20 05:29N 19°13' W 096°08'0 0.0
2017-Sep-20 04:59N 19°13' W 096°08'0 0.0
2017-Sep-20 04:29N 19°13' W 096°08'0 0.0
2017-Sep-20 03:59N 19°13' W 096°08'0 0.0
2017-Sep-20 03:29N 19°13' W 096°08'0 0.0
2017-Sep-20 02:53N 19°13' W 096°08'0 0.0
2017-Sep-20 02:29N 19°13' W 096°08'0 0.0
2017-Sep-20 01:59N 19°13' W 096°08'0 0.0
2017-Sep-20 01:29N 19°13' W 096°08'0 0.0
2017-Sep-20 00:59N 19°13' W 096°08'0 0.0
2017-Sep-20 00:29N 19°13' W 096°08'0 0.0
2017-Sep-19 23:59N 19°13' W 096°08'0 0.0
2017-Sep-19 23:29N 19°13' W 096°08'0 0.0
2017-Sep-19 22:59N 19°13' W 096°08'0 0.0
2017-Sep-19 22:29N 19°13' W 096°08'0 0.0
2017-Sep-19 21:59N 19°13' W 096°08'0 0.5
2017-Sep-19 21:30N 19°12' W 096°08'4 7.3
2017-Sep-19 21:00N 19°11' W 096°04'3 6.6
2017-Sep-19 20:30N 19°12' W 096°01'4 7.8
2017-Sep-19 20:00N 19°14' W 095°57'2 4.4
2017-Sep-19 19:30N 19°15' W 095°55'0 0.5
2017-Sep-19 19:00N 19°15' W 095°55'0 0.4
2017-Sep-19 18:30N 19°16' W 095°55'0 0.4
2017-Sep-19 18:00N 19°16' W 095°55'0 0.5
2017-Sep-19 17:30N 19°16' W 095°55'0 0.4
2017-Sep-19 17:00N 19°16' W 095°55'0 0.3
2017-Sep-19 16:30N 19°16' W 095°55'0 0.4
2017-Sep-19 16:00N 19°16' W 095°54'1 0.9
2017-Sep-19 15:27N 19°16' W 095°54'0 0.8
2017-Sep-19 14:58N 19°16' W 095°54'0 1.0
2017-Sep-19 14:30N 19°16' W 095°53'1 2.3
2017-Sep-19 14:00N 19°16' W 095°52'4 8.3
2017-Sep-19 13:30N 19°15' W 095°48'510.1
2017-Sep-19 13:00N 19°16' W 095°43'510.6
2017-Sep-19 12:30N 19°18' W 095°38'  
2017-Sep-16 06:37N 25°04' W 080°10'419.6
2017-Sep-16 06:26N 25°07' W 080°08'819.5
2017-Sep-16 06:00N 25°15' W 080°05'918.3
2017-Sep-16 05:30N 25°23' W 080°02'612.5
2017-Sep-16 05:00N 25°30' W 080°01'4 8.7
2017-Sep-16 04:30N 25°34' W 080°01'4 8.8
2017-Sep-16 04:00N 25°38' W 080°01'612.7
2017-Sep-16 03:30N 25°45' W 080°03'5 9.8
2017-Sep-16 03:00N 25°46' W 080°08'1 1.7
2017-Sep-16 02:28N 25°46' W 080°09'0 0.0
2017-Sep-16 01:58N 25°46' W 080°09'0 0.0
2017-Sep-16 01:28N 25°46' W 080°09'0 0.0
2017-Sep-16 00:58N 25°46' W 080°09'0 0.0
2017-Sep-16 00:25N 25°46' W 080°09'0 0.0
2017-Sep-15 23:58N 25°46' W 080°09'0 0.0
2017-Sep-15 23:28N 25°46' W 080°09'0 0.0
2017-Sep-15 22:55N 25°46' W 080°09'0 0.0
2017-Sep-15 22:28N 25°46' W 080°09'0 0.0
2017-Sep-15 21:55N 25°46' W 080°09'0 0.0
2017-Sep-15 21:28N 25°46' W 080°09'0 0.0
2017-Sep-15 20:55N 25°46' W 080°09'0 0.0
2017-Sep-15 20:25N 25°46' W 080°09'0 0.0
2017-Sep-15 19:55N 25°46' W 080°09'0 0.0
2017-Sep-15 19:28N 25°46' W 080°09'0 0.0
2017-Sep-15 18:55N 25°46' W 080°09'0 0.4
2017-Sep-15 18:28N 25°46' W 080°09'0 0.0
2017-Sep-15 17:58N 25°46' W 080°09'0 0.0
2017-Sep-15 17:28N 25°46' W 080°09'0 0.0
2017-Sep-15 16:58N 25°46' W 080°09'0 0.0
2017-Sep-15 16:30N 25°46' W 080°09'1 1.8
2017-Sep-15 16:00N 25°46' W 080°08'5 9.8
2017-Sep-15 15:30N 25°46' W 080°02'611.5
2017-Sep-15 15:01N 25°51' W 079°59'713.4
2017-Sep-15 14:30N 25°57' W 079°56'1 1.5
2017-Sep-15 14:00N 25°57' W 079°57'1 1.6
2017-Sep-15 13:30N 25°56' W 079°57'0 0.8
2017-Sep-15 13:00N 25°56' W 079°58'2 4.1
2017-Sep-15 12:30N 25°58' W 079°58'1 2.3
2017-Sep-15 12:00N 25°59' W 079°57'4 7.9
2017-Sep-15 11:30N 26°03' W 079°57'4 7.6
2017-Sep-15 11:00N 26°07' W 079°57'4 7.5
2017-Sep-15 10:30N 26°10' W 079°57'4 7.3
2017-Sep-15 10:00N 26°14' W 079°56'4 7.2
2017-Sep-15 09:30N 26°18' W 079°56'4 7.4
2017-Sep-15 09:00N 26°21' W 079°56'4 7.6
2017-Sep-15 08:30N 26°25' W 079°56'4 7.7
2017-Sep-15 08:00N 26°29' W 079°55'4 7.4
2017-Sep-15 07:30N 26°33' W 079°55'4 7.3
2017-Sep-15 07:00N 26°36' W 079°55'4 7.2
2017-Sep-15 06:28N 26°40' W 079°55'3 7.3
2017-Sep-15 05:59N 26°44' W 079°54'4 7.6
2017-Sep-15 05:30N 26°47' W 079°54'4 7.6
2017-Sep-15 05:00N 26°51' W 079°54'4 7.4
2017-Sep-15 04:30N 26°55' W 079°54'4 7.3
2017-Sep-15 04:00N 26°58' W 079°54'3 6.9
2017-Sep-15 03:30N 27°02' W 079°53'3 6.9
2017-Sep-15 03:00N 27°05' W 079°53'3 6.9
2017-Sep-15 02:30N 27°09' W 079°53'4 6.7
2017-Sep-15 01:58N 27°12' W 079°53'3 6.9
2017-Sep-15 01:30N 27°16' W 079°52'4 6.7
2017-Sep-15 00:51N 27°20' W 079°52'264 7.7
2017-Sep-13 14:20N 31°44' W 079°38'617.5
2017-Sep-13 13:59N 31°50' W 079°37'1323.1
2017-Sep-13 13:26N 32°03' W 079°37'1021.1
2017-Sep-13 12:58N 32°13' W 079°36'1018.7
2017-Sep-13 12:26N 32°22' W 079°36'918.6
2017-Sep-13 11:58N 32°31' W 079°36'1112.9
2017-Sep-13 11:08N 32°40' W 079°43'217.5
2017-Sep-13 11:00N 32°42' W 079°45'  

Dump ship's entire track history